sensor_id;sensor_type;location;lat;lon;timestamp;temperature;humidity
30379;DHT22;17168;49.164;9.060;2022-12-19T00:01:46;4.80;71.40
30379;DHT22;17168;49.164;9.060;2022-12-19T00:04:18;4.90;71.30
30379;DHT22;17168;49.164;9.060;2022-12-19T00:06:51;4.90;71.20
30379;DHT22;17168;49.164;9.060;2022-12-19T00:09:24;5.00;71.10
30379;DHT22;17168;49.164;9.060;2022-12-19T00:11:56;5.00;70.90
30379;DHT22;17168;49.164;9.060;2022-12-19T00:14:28;5.10;70.90
30379;DHT22;17168;49.164;9.060;2022-12-19T00:16:59;5.10;70.80
30379;DHT22;17168;49.164;9.060;2022-12-19T00:19:31;5.10;70.70
30379;DHT22;17168;49.164;9.060;2022-12-19T00:22:02;5.20;70.60
30379;DHT22;17168;49.164;9.060;2022-12-19T00:24:42;5.20;70.40
30379;DHT22;17168;49.164;9.060;2022-12-19T00:27:14;5.30;70.40
30379;DHT22;17168;49.164;9.060;2022-12-19T00:29:46;5.30;70.70
30379;DHT22;17168;49.164;9.060;2022-12-19T00:32:18;5.30;70.10
30379;DHT22;17168;49.164;9.060;2022-12-19T00:34:49;5.30;69.90
30379;DHT22;17168;49.164;9.060;2022-12-19T00:37:21;5.30;69.80
30379;DHT22;17168;49.164;9.060;2022-12-19T00:39:54;5.30;69.80
30379;DHT22;17168;49.164;9.060;2022-12-19T00:42:26;5.30;69.70
30379;DHT22;17168;49.164;9.060;2022-12-19T00:44:59;5.30;69.70
30379;DHT22;17168;49.164;9.060;2022-12-19T00:47:30;5.40;69.60
30379;DHT22;17168;49.164;9.060;2022-12-19T00:50:02;5.40;69.40
30379;DHT22;17168;49.164;9.060;2022-12-19T00:52:34;5.40;69.30
30379;DHT22;17168;49.164;9.060;2022-12-19T00:55:07;5.40;69.30
30379;DHT22;17168;49.164;9.060;2022-12-19T00:57:49;5.40;69.30
30379;DHT22;17168;49.164;9.060;2022-12-19T01:00:23;5.40;69.20
30379;DHT22;17168;49.164;9.060;2022-12-19T01:02:55;5.40;69.20
30379;DHT22;17168;49.164;9.060;2022-12-19T01:05:27;5.30;68.90
30379;DHT22;17168;49.164;9.060;2022-12-19T01:07:58;5.20;68.20
30379;DHT22;17168;49.164;9.060;2022-12-19T01:10:31;5.00;67.70
30379;DHT22;17168;49.164;9.060;2022-12-19T01:13:03;4.70;67.50
30379;DHT22;17168;49.164;9.060;2022-12-19T01:15:37;4.40;67.50
30379;DHT22;17168;49.164;9.060;2022-12-19T01:18:09;4.10;67.60
30379;DHT22;17168;49.164;9.060;2022-12-19T01:20:41;3.70;67.70
30379;DHT22;17168;49.164;9.060;2022-12-19T01:23:14;3.40;68.00
30379;DHT22;17168;49.164;9.060;2022-12-19T01:25:50;3.20;68.40
30379;DHT22;17168;49.164;9.060;2022-12-19T01:28:23;2.90;68.70
30379;DHT22;17168;49.164;9.060;2022-12-19T01:30:54;2.70;69.00
30379;DHT22;17168;49.164;9.060;2022-12-19T01:33:26;2.50;69.30
30379;DHT22;17168;49.164;9.060;2022-12-19T01:35:58;2.30;69.60
30379;DHT22;17168;49.164;9.060;2022-12-19T01:38:32;2.20;70.10
30379;DHT22;17168;49.164;9.060;2022-12-19T01:41:05;2.00;70.30
30379;DHT22;17168;49.164;9.060;2022-12-19T01:43:56;1.90;70.60
30379;DHT22;17168;49.164;9.060;2022-12-19T01:46:29;1.80;70.80
30379;DHT22;17168;49.164;9.060;2022-12-19T01:49:03;1.70;71.10
30379;DHT22;17168;49.164;9.060;2022-12-19T01:51:36;1.60;71.40
30379;DHT22;17168;49.164;9.060;2022-12-19T01:54:13;1.50;71.70
30379;DHT22;17168;49.164;9.060;2022-12-19T01:56:49;1.40;71.90
30379;DHT22;17168;49.164;9.060;2022-12-19T01:59:25;1.40;72.10
30379;DHT22;17168;49.164;9.060;2022-12-19T02:02:02;1.30;72.30
30379;DHT22;17168;49.164;9.060;2022-12-19T02:04:38;1.30;72.50
30379;DHT22;17168;49.164;9.060;2022-12-19T02:07:11;1.20;72.70
30379;DHT22;17168;49.164;9.060;2022-12-19T02:09:48;1.20;72.90
30379;DHT22;17168;49.164;9.060;2022-12-19T02:12:30;1.20;73.10
30379;DHT22;17168;49.164;9.060;2022-12-19T02:15:04;1.10;73.30
30379;DHT22;17168;49.164;9.060;2022-12-19T02:17:37;1.10;73.60
30379;DHT22;17168;49.164;9.060;2022-12-19T02:20:16;1.00;73.70
30379;DHT22;17168;49.164;9.060;2022-12-19T02:22:55;1.00;73.90
30379;DHT22;17168;49.164;9.060;2022-12-19T02:25:37;1.00;74.10
30379;DHT22;17168;49.164;9.060;2022-12-19T02:28:28;1.00;74.30
30379;DHT22;17168;49.164;9.060;2022-12-19T02:31:06;1.00;74.50
30379;DHT22;17168;49.164;9.060;2022-12-19T02:33:49;1.00;74.60
30379;DHT22;17168;49.164;9.060;2022-12-19T02:36:28;0.90;74.70
30379;DHT22;17168;49.164;9.060;2022-12-19T02:39:09;0.90;74.80
30379;DHT22;17168;49.164;9.060;2022-12-19T02:41:43;0.90;74.90
30379;DHT22;17168;49.164;9.060;2022-12-19T02:44:18;0.90;75.10
30379;DHT22;17168;49.164;9.060;2022-12-19T02:46:53;0.90;75.20
30379;DHT22;17168;49.164;9.060;2022-12-19T02:49:27;0.90;75.30
30379;DHT22;17168;49.164;9.060;2022-12-19T02:52:08;0.90;75.40
30379;DHT22;17168;49.164;9.060;2022-12-19T02:54:39;0.90;75.50
30379;DHT22;17168;49.164;9.060;2022-12-19T02:57:17;1.00;75.70
30379;DHT22;17168;49.164;9.060;2022-12-19T02:59:53;1.00;75.80
30379;DHT22;17168;49.164;9.060;2022-12-19T03:02:29;1.00;75.90
30379;DHT22;17168;49.164;9.060;2022-12-19T03:05:06;1.00;76.00
30379;DHT22;17168;49.164;9.060;2022-12-19T03:07:40;1.00;76.10
30379;DHT22;17168;49.164;9.060;2022-12-19T03:10:15;1.00;76.20
30379;DHT22;17168;49.164;9.060;2022-12-19T03:12:49;1.00;76.40
30379;DHT22;17168;49.164;9.060;2022-12-19T03:15:22;1.00;76.50
30379;DHT22;17168;49.164;9.060;2022-12-19T03:17:56;1.00;76.70
30379;DHT22;17168;49.164;9.060;2022-12-19T03:20:31;1.00;76.70
30379;DHT22;17168;49.164;9.060;2022-12-19T03:23:06;1.00;76.80
30379;DHT22;17168;49.164;9.060;2022-12-19T03:25:37;1.00;76.90
30379;DHT22;17168;49.164;9.060;2022-12-19T03:28:12;1.00;76.90
30379;DHT22;17168;49.164;9.060;2022-12-19T03:30:46;1.00;77.00
30379;DHT22;17168;49.164;9.060;2022-12-19T03:33:20;1.00;77.00
30379;DHT22;17168;49.164;9.060;2022-12-19T03:35:52;1.00;77.10
30379;DHT22;17168;49.164;9.060;2022-12-19T03:38:24;1.00;77.20
30379;DHT22;17168;49.164;9.060;2022-12-19T03:40:56;1.10;77.30
30379;DHT22;17168;49.164;9.060;2022-12-19T03:43:30;1.10;77.50
30379;DHT22;17168;49.164;9.060;2022-12-19T03:46:03;1.10;77.60
30379;DHT22;17168;49.164;9.060;2022-12-19T03:48:39;1.10;77.60
30379;DHT22;17168;49.164;9.060;2022-12-19T03:51:19;1.10;77.60
30379;DHT22;17168;49.164;9.060;2022-12-19T03:53:55;1.20;77.80
30379;DHT22;17168;49.164;9.060;2022-12-19T03:56:38;1.20;77.90
30379;DHT22;17168;49.164;9.060;2022-12-19T03:59:16;1.20;78.00
30379;DHT22;17168;49.164;9.060;2022-12-19T04:01:51;1.20;78.10
30379;DHT22;17168;49.164;9.060;2022-12-19T04:04:26;1.20;78.10
30379;DHT22;17168;49.164;9.060;2022-12-19T04:07:00;1.20;78.20
30379;DHT22;17168;49.164;9.060;2022-12-19T04:09:34;1.20;78.30
30379;DHT22;17168;49.164;9.060;2022-12-19T04:12:10;1.20;78.40
30379;DHT22;17168;49.164;9.060;2022-12-19T04:14:44;1.20;78.60
30379;DHT22;17168;49.164;9.060;2022-12-19T04:17:24;1.20;78.60
30379;DHT22;17168;49.164;9.060;2022-12-19T04:20:03;1.30;78.80
30379;DHT22;17168;49.164;9.060;2022-12-19T04:22:38;1.30;78.90
30379;DHT22;17168;49.164;9.060;2022-12-19T04:25:15;1.30;79.00
30379;DHT22;17168;49.164;9.060;2022-12-19T04:27:51;1.30;79.10
30379;DHT22;17168;49.164;9.060;2022-12-19T04:30:24;1.30;79.20
30379;DHT22;17168;49.164;9.060;2022-12-19T04:32:58;1.30;79.30
30379;DHT22;17168;49.164;9.060;2022-12-19T04:35:31;1.30;79.30
30379;DHT22;17168;49.164;9.060;2022-12-19T04:38:03;1.30;79.40
30379;DHT22;17168;49.164;9.060;2022-12-19T04:40:37;1.30;79.40
30379;DHT22;17168;49.164;9.060;2022-12-19T04:43:12;1.40;79.50
30379;DHT22;17168;49.164;9.060;2022-12-19T04:45:44;1.40;79.60
30379;DHT22;17168;49.164;9.060;2022-12-19T04:48:17;1.40;79.80
30379;DHT22;17168;49.164;9.060;2022-12-19T04:50:50;1.40;79.90
30379;DHT22;17168;49.164;9.060;2022-12-19T04:53:23;1.40;80.00
30379;DHT22;17168;49.164;9.060;2022-12-19T04:55:59;1.40;80.10
30379;DHT22;17168;49.164;9.060;2022-12-19T04:58:32;1.40;80.20
30379;DHT22;17168;49.164;9.060;2022-12-19T05:01:06;1.40;80.30
30379;DHT22;17168;49.164;9.060;2022-12-19T05:03:38;1.50;80.40
30379;DHT22;17168;49.164;9.060;2022-12-19T05:06:12;1.50;80.50
30379;DHT22;17168;49.164;9.060;2022-12-19T05:08:45;1.50;80.70
30379;DHT22;17168;49.164;9.060;2022-12-19T05:11:17;1.50;80.70
30379;DHT22;17168;49.164;9.060;2022-12-19T05:13:50;1.50;80.70
30379;DHT22;17168;49.164;9.060;2022-12-19T05:16:22;1.60;80.90
30379;DHT22;17168;49.164;9.060;2022-12-19T05:18:54;1.60;81.00
30379;DHT22;17168;49.164;9.060;2022-12-19T05:21:28;1.60;81.10
30379;DHT22;17168;49.164;9.060;2022-12-19T05:24:00;1.60;81.10
30379;DHT22;17168;49.164;9.060;2022-12-19T05:26:32;1.60;81.10
30379;DHT22;17168;49.164;9.060;2022-12-19T05:29:04;1.60;81.30
30379;DHT22;17168;49.164;9.060;2022-12-19T05:31:36;1.60;81.40
30379;DHT22;17168;49.164;9.060;2022-12-19T05:34:07;1.60;81.50
30379;DHT22;17168;49.164;9.060;2022-12-19T05:36:41;1.70;81.70
30379;DHT22;17168;49.164;9.060;2022-12-19T05:39:12;1.70;81.80
30379;DHT22;17168;49.164;9.060;2022-12-19T05:41:44;1.70;81.90
30379;DHT22;17168;49.164;9.060;2022-12-19T05:44:20;1.70;82.00
30379;DHT22;17168;49.164;9.060;2022-12-19T05:46:51;1.70;82.10
30379;DHT22;17168;49.164;9.060;2022-12-19T05:49:23;1.70;82.20
30379;DHT22;17168;49.164;9.060;2022-12-19T05:51:57;1.80;82.30
30379;DHT22;17168;49.164;9.060;2022-12-19T05:54:29;1.80;82.50
30379;DHT22;17168;49.164;9.060;2022-12-19T05:57:01;1.80;82.50
30379;DHT22;17168;49.164;9.060;2022-12-19T05:59:33;1.80;82.60
30379;DHT22;17168;49.164;9.060;2022-12-19T06:02:05;1.80;82.70
30379;DHT22;17168;49.164;9.060;2022-12-19T06:04:37;1.90;82.90
30379;DHT22;17168;49.164;9.060;2022-12-19T06:07:10;1.90;83.00
30379;DHT22;17168;49.164;9.060;2022-12-19T06:09:45;1.90;83.10
30379;DHT22;17168;49.164;9.060;2022-12-19T06:12:17;1.90;83.10
30379;DHT22;17168;49.164;9.060;2022-12-19T06:14:49;1.90;83.30
30379;DHT22;17168;49.164;9.060;2022-12-19T06:17:21;1.90;83.40
30379;DHT22;17168;49.164;9.060;2022-12-19T06:19:53;1.90;83.50
30379;DHT22;17168;49.164;9.060;2022-12-19T06:22:26;2.00;83.60
30379;DHT22;17168;49.164;9.060;2022-12-19T06:24:58;2.00;83.80
30379;DHT22;17168;49.164;9.060;2022-12-19T06:27:30;2.00;83.80
30379;DHT22;17168;49.164;9.060;2022-12-19T06:30:02;2.00;86.10
30379;DHT22;17168;49.164;9.060;2022-12-19T06:32:34;2.10;87.80
30379;DHT22;17168;49.164;9.060;2022-12-19T06:35:09;2.10;85.20
30379;DHT22;17168;49.164;9.060;2022-12-19T06:37:42;2.00;84.30
30379;DHT22;17168;49.164;9.060;2022-12-19T06:40:14;2.10;84.60
30379;DHT22;17168;49.164;9.060;2022-12-19T06:43:05;2.10;84.80
30379;DHT22;17168;49.164;9.060;2022-12-19T06:45:37;2.10;84.40
30379;DHT22;17168;49.164;9.060;2022-12-19T06:48:09;2.10;84.50
30379;DHT22;17168;49.164;9.060;2022-12-19T06:50:41;2.20;84.80
30379;DHT22;17168;49.164;9.060;2022-12-19T06:53:14;2.20;85.00
30379;DHT22;17168;49.164;9.060;2022-12-19T06:55:46;2.20;85.10
30379;DHT22;17168;49.164;9.060;2022-12-19T06:58:18;2.20;85.00
30379;DHT22;17168;49.164;9.060;2022-12-19T07:00:55;2.20;84.90
30379;DHT22;17168;49.164;9.060;2022-12-19T07:03:29;2.20;85.10
30379;DHT22;17168;49.164;9.060;2022-12-19T07:06:02;2.20;85.20
30379;DHT22;17168;49.164;9.060;2022-12-19T07:08:35;2.30;85.40
30379;DHT22;17168;49.164;9.060;2022-12-19T07:11:07;2.30;85.50
30379;DHT22;17168;49.164;9.060;2022-12-19T07:13:38;2.30;85.60
30379;DHT22;17168;49.164;9.060;2022-12-19T07:16:12;2.30;85.60
30379;DHT22;17168;49.164;9.060;2022-12-19T07:18:43;2.40;85.70
30379;DHT22;17168;49.164;9.060;2022-12-19T07:21:15;2.40;85.90
30379;DHT22;17168;49.164;9.060;2022-12-19T07:23:48;2.40;85.90
30379;DHT22;17168;49.164;9.060;2022-12-19T07:26:22;2.40;86.00
30379;DHT22;17168;49.164;9.060;2022-12-19T07:28:54;2.40;86.10
30379;DHT22;17168;49.164;9.060;2022-12-19T07:31:25;2.40;86.10
30379;DHT22;17168;49.164;9.060;2022-12-19T07:33:57;2.40;86.20
30379;DHT22;17168;49.164;9.060;2022-12-19T07:36:29;2.40;86.30
30379;DHT22;17168;49.164;9.060;2022-12-19T07:39:02;2.40;86.40
30379;DHT22;17168;49.164;9.060;2022-12-19T07:41:34;2.40;86.50
30379;DHT22;17168;49.164;9.060;2022-12-19T07:44:06;2.40;86.60
30379;DHT22;17168;49.164;9.060;2022-12-19T07:46:38;2.40;86.80
30379;DHT22;17168;49.164;9.060;2022-12-19T07:49:10;2.40;86.90
30379;DHT22;17168;49.164;9.060;2022-12-19T07:51:41;2.40;86.90
30379;DHT22;17168;49.164;9.060;2022-12-19T07:54:14;2.40;87.00
30379;DHT22;17168;49.164;9.060;2022-12-19T07:56:46;2.40;87.10
30379;DHT22;17168;49.164;9.060;2022-12-19T07:59:18;2.40;87.20
30379;DHT22;17168;49.164;9.060;2022-12-19T08:01:49;2.40;87.80
30379;DHT22;17168;49.164;9.060;2022-12-19T08:04:21;2.50;87.50
30379;DHT22;17168;49.164;9.060;2022-12-19T08:06:53;2.50;87.60
30379;DHT22;17168;49.164;9.060;2022-12-19T08:09:26;2.50;87.70
30379;DHT22;17168;49.164;9.060;2022-12-19T08:11:58;2.60;87.80
30379;DHT22;17168;49.164;9.060;2022-12-19T08:14:29;2.60;87.90
30379;DHT22;17168;49.164;9.060;2022-12-19T08:17:01;2.60;88.10
30379;DHT22;17168;49.164;9.060;2022-12-19T08:19:53;2.60;88.20
30379;DHT22;17168;49.164;9.060;2022-12-19T08:22:24;2.60;88.20
30379;DHT22;17168;49.164;9.060;2022-12-19T08:24:57;2.70;88.20
30379;DHT22;17168;49.164;9.060;2022-12-19T08:27:29;2.70;88.30
30379;DHT22;17168;49.164;9.060;2022-12-19T08:30:01;2.80;88.40
30379;DHT22;17168;49.164;9.060;2022-12-19T08:32:33;2.80;88.50
30379;DHT22;17168;49.164;9.060;2022-12-19T08:35:06;2.80;88.60
30379;DHT22;17168;49.164;9.060;2022-12-19T08:37:39;2.90;88.80
30379;DHT22;17168;49.164;9.060;2022-12-19T08:40:12;2.90;88.80
30379;DHT22;17168;49.164;9.060;2022-12-19T08:42:44;2.90;88.80
30379;DHT22;17168;49.164;9.060;2022-12-19T08:45:16;2.90;88.90
30379;DHT22;17168;49.164;9.060;2022-12-19T08:47:48;3.00;89.00
30379;DHT22;17168;49.164;9.060;2022-12-19T08:50:20;3.00;89.10
30379;DHT22;17168;49.164;9.060;2022-12-19T08:52:51;3.00;89.10
30379;DHT22;17168;49.164;9.060;2022-12-19T08:55:24;3.10;89.30
30379;DHT22;17168;49.164;9.060;2022-12-19T08:57:59;3.10;89.30
30379;DHT22;17168;49.164;9.060;2022-12-19T09:00:32;3.10;89.40
30379;DHT22;17168;49.164;9.060;2022-12-19T09:03:04;3.20;89.50
30379;DHT22;17168;49.164;9.060;2022-12-19T09:05:37;3.20;89.50
30379;DHT22;17168;49.164;9.060;2022-12-19T09:08:29;3.20;89.50
30379;DHT22;17168;49.164;9.060;2022-12-19T09:11:03;3.20;89.60
30379;DHT22;17168;49.164;9.060;2022-12-19T09:13:35;3.20;89.60
30379;DHT22;17168;49.164;9.060;2022-12-19T09:16:09;3.30;89.80
30379;DHT22;17168;49.164;9.060;2022-12-19T09:18:43;3.30;90.00
30379;DHT22;17168;49.164;9.060;2022-12-19T09:21:21;3.30;89.90
30379;DHT22;17168;49.164;9.060;2022-12-19T09:23:55;3.30;89.90
30379;DHT22;17168;49.164;9.060;2022-12-19T09:26:36;3.30;90.00
30379;DHT22;17168;49.164;9.060;2022-12-19T09:29:09;3.30;90.00
30379;DHT22;17168;49.164;9.060;2022-12-19T09:31:51;3.40;90.10
30379;DHT22;17168;49.164;9.060;2022-12-19T09:34:28;3.40;90.20
30379;DHT22;17168;49.164;9.060;2022-12-19T09:37:10;3.40;90.10
30379;DHT22;17168;49.164;9.060;2022-12-19T09:39:48;3.40;90.40
30379;DHT22;17168;49.164;9.060;2022-12-19T09:45:32;3.40;90.20
30379;DHT22;17168;49.164;9.060;2022-12-19T09:48:11;3.50;90.30
30379;DHT22;17168;49.164;9.060;2022-12-19T09:50:58;3.50;90.30
30379;DHT22;17168;49.164;9.060;2022-12-19T09:53:43;3.50;90.40
30379;DHT22;17168;49.164;9.060;2022-12-19T09:56:25;3.60;90.40
30379;DHT22;17168;49.164;9.060;2022-12-19T09:59:02;3.60;90.50
30379;DHT22;17168;49.164;9.060;2022-12-19T10:01:48;3.70;90.60
30379;DHT22;17168;49.164;9.060;2022-12-19T10:04:23;3.80;90.70
30379;DHT22;17168;49.164;9.060;2022-12-19T10:06:57;3.80;90.80
30379;DHT22;17168;49.164;9.060;2022-12-19T10:09:56;3.80;90.80
30379;DHT22;17168;49.164;9.060;2022-12-19T10:13:04;3.80;90.80
30379;DHT22;17168;49.164;9.060;2022-12-19T10:15:51;3.90;90.80
30379;DHT22;17168;49.164;9.060;2022-12-19T10:18:41;4.00;90.90
30379;DHT22;17168;49.164;9.060;2022-12-19T10:21:28;4.00;90.90
30379;DHT22;17168;49.164;9.060;2022-12-19T10:24:34;4.00;90.90
30379;DHT22;17168;49.164;9.060;2022-12-19T10:27:12;4.10;91.00
30379;DHT22;17168;49.164;9.060;2022-12-19T10:29:48;4.10;91.10
30379;DHT22;17168;49.164;9.060;2022-12-19T10:32:25;4.20;91.20
30379;DHT22;17168;49.164;9.060;2022-12-19T10:34:59;4.30;91.30
30379;DHT22;17168;49.164;9.060;2022-12-19T10:37:35;4.30;91.30
30379;DHT22;17168;49.164;9.060;2022-12-19T10:40:21;4.40;91.30
30379;DHT22;17168;49.164;9.060;2022-12-19T10:42:58;4.50;91.40
30379;DHT22;17168;49.164;9.060;2022-12-19T10:45:43;4.60;91.40
30379;DHT22;17168;49.164;9.060;2022-12-19T10:48:20;4.70;91.50
30379;DHT22;17168;49.164;9.060;2022-12-19T10:51:01;4.80;91.50
30379;DHT22;17168;49.164;9.060;2022-12-19T10:53:37;4.80;91.50
30379;DHT22;17168;49.164;9.060;2022-12-19T10:56:12;4.90;91.50
30379;DHT22;17168;49.164;9.060;2022-12-19T10:58:54;5.00;91.50
30379;DHT22;17168;49.164;9.060;2022-12-19T11:01:32;5.00;91.60
30379;DHT22;17168;49.164;9.060;2022-12-19T11:04:26;5.10;91.60
30379;DHT22;17168;49.164;9.060;2022-12-19T11:07:17;5.20;91.60
30379;DHT22;17168;49.164;9.060;2022-12-19T11:09:49;5.30;91.60
30379;DHT22;17168;49.164;9.060;2022-12-19T11:12:50;5.30;91.60
30379;DHT22;17168;49.164;9.060;2022-12-19T11:15:46;5.40;91.60
30379;DHT22;17168;49.164;9.060;2022-12-19T11:18:41;5.50;91.60
30379;DHT22;17168;49.164;9.060;2022-12-19T11:21:35;5.50;91.60
30379;DHT22;17168;49.164;9.060;2022-12-19T11:24:30;5.60;91.70
30379;DHT22;17168;49.164;9.060;2022-12-19T11:27:37;5.70;91.70
30379;DHT22;17168;49.164;9.060;2022-12-19T11:30:30;5.80;91.80
30379;DHT22;17168;49.164;9.060;2022-12-19T11:33:22;5.80;91.70
30379;DHT22;17168;49.164;9.060;2022-12-19T11:35:57;5.90;91.70
30379;DHT22;17168;49.164;9.060;2022-12-19T11:38:37;6.00;91.70
30379;DHT22;17168;49.164;9.060;2022-12-19T11:41:11;6.00;91.70
30379;DHT22;17168;49.164;9.060;2022-12-19T11:43:48;6.10;91.70
30379;DHT22;17168;49.164;9.060;2022-12-19T11:46:22;6.20;91.70
30379;DHT22;17168;49.164;9.060;2022-12-19T11:49:03;6.20;91.70
30379;DHT22;17168;49.164;9.060;2022-12-19T11:51:41;6.30;91.70
30379;DHT22;17168;49.164;9.060;2022-12-19T11:54:16;6.40;91.70
30379;DHT22;17168;49.164;9.060;2022-12-19T11:56:51;6.50;91.60
30379;DHT22;17168;49.164;9.060;2022-12-19T11:59:28;6.50;91.50
30379;DHT22;17168;49.164;9.060;2022-12-19T12:02:37;6.50;91.50
30379;DHT22;17168;49.164;9.060;2022-12-19T12:05:27;6.60;91.40
30379;DHT22;17168;49.164;9.060;2022-12-19T12:11:40;6.70;91.50
30379;DHT22;17168;49.164;9.060;2022-12-19T12:14:44;6.80;91.60
30379;DHT22;17168;49.164;9.060;2022-12-19T12:17:48;6.80;91.50
30379;DHT22;17168;49.164;9.060;2022-12-19T12:20:50;6.90;91.50
30379;DHT22;17168;49.164;9.060;2022-12-19T12:23:55;6.90;91.30
30379;DHT22;17168;49.164;9.060;2022-12-19T12:26:59;6.90;91.10
30379;DHT22;17168;49.164;9.060;2022-12-19T12:29:59;6.90;91.00
30379;DHT22;17168;49.164;9.060;2022-12-19T12:33:04;6.80;90.90
30379;DHT22;17168;49.164;9.060;2022-12-19T12:36:01;6.80;90.80
30379;DHT22;17168;49.164;9.060;2022-12-19T12:39:02;6.80;90.80
30379;DHT22;17168;49.164;9.060;2022-12-19T12:41:42;6.70;90.70
30379;DHT22;17168;49.164;9.060;2022-12-19T12:44:37;6.70;90.70
30379;DHT22;17168;49.164;9.060;2022-12-19T12:47:18;6.70;90.60
30379;DHT22;17168;49.164;9.060;2022-12-19T12:49:54;6.70;90.60
30379;DHT22;17168;49.164;9.060;2022-12-19T12:52:31;6.70;90.50
30379;DHT22;17168;49.164;9.060;2022-12-19T12:55:13;6.70;90.50
30379;DHT22;17168;49.164;9.060;2022-12-19T12:57:46;6.70;90.50
30379;DHT22;17168;49.164;9.060;2022-12-19T13:00:24;6.80;90.70
30379;DHT22;17168;49.164;9.060;2022-12-19T13:03:02;6.90;90.90
30379;DHT22;17168;49.164;9.060;2022-12-19T13:05:50;7.00;90.90
30379;DHT22;17168;49.164;9.060;2022-12-19T13:08:31;7.10;90.70
30379;DHT22;17168;49.164;9.060;2022-12-19T13:11:10;7.10;90.60
30379;DHT22;17168;49.164;9.060;2022-12-19T13:13:53;7.10;90.50
30379;DHT22;17168;49.164;9.060;2022-12-19T13:16:50;7.10;90.40
30379;DHT22;17168;49.164;9.060;2022-12-19T13:19:24;7.10;90.40
30379;DHT22;17168;49.164;9.060;2022-12-19T13:28:37;7.20;90.30
30379;DHT22;17168;49.164;9.060;2022-12-19T13:31:17;7.20;90.20
30379;DHT22;17168;49.164;9.060;2022-12-19T13:34:16;7.20;90.20
30379;DHT22;17168;49.164;9.060;2022-12-19T13:36:53;7.20;90.10
30379;DHT22;17168;49.164;9.060;2022-12-19T13:39:59;7.10;90.00
30379;DHT22;17168;49.164;9.060;2022-12-19T13:43:00;7.10;89.90
30379;DHT22;17168;49.164;9.060;2022-12-19T13:45:53;7.10;89.70
30379;DHT22;17168;49.164;9.060;2022-12-19T13:48:29;7.00;89.60
30379;DHT22;17168;49.164;9.060;2022-12-19T13:51:04;7.00;89.60
30379;DHT22;17168;49.164;9.060;2022-12-19T13:53:36;6.90;89.50
30379;DHT22;17168;49.164;9.060;2022-12-19T13:56:10;6.90;89.40
30379;DHT22;17168;49.164;9.060;2022-12-19T13:58:44;6.90;89.50
30379;DHT22;17168;49.164;9.060;2022-12-19T14:01:19;6.80;89.30
30379;DHT22;17168;49.164;9.060;2022-12-19T14:03:53;6.80;89.20
30379;DHT22;17168;49.164;9.060;2022-12-19T14:06:27;6.80;89.20
30379;DHT22;17168;49.164;9.060;2022-12-19T14:09:01;6.70;89.10
30379;DHT22;17168;49.164;9.060;2022-12-19T14:11:54;6.70;89.10
30379;DHT22;17168;49.164;9.060;2022-12-19T14:14:49;6.60;89.10
30379;DHT22;17168;49.164;9.060;2022-12-19T14:17:46;6.60;89.20
30379;DHT22;17168;49.164;9.060;2022-12-19T14:20:19;6.60;89.20
30379;DHT22;17168;49.164;9.060;2022-12-19T14:23:12;6.60;89.30
30379;DHT22;17168;49.164;9.060;2022-12-19T14:25:45;6.60;89.30
30379;DHT22;17168;49.164;9.060;2022-12-19T14:28:39;6.60;89.30
30379;DHT22;17168;49.164;9.060;2022-12-19T14:31:13;6.50;89.30
30379;DHT22;17168;49.164;9.060;2022-12-19T14:33:45;6.50;89.40
30379;DHT22;17168;49.164;9.060;2022-12-19T14:36:37;6.50;89.40
30379;DHT22;17168;49.164;9.060;2022-12-19T14:39:14;6.50;89.30
30379;DHT22;17168;49.164;9.060;2022-12-19T14:42:02;6.50;89.30
30379;DHT22;17168;49.164;9.060;2022-12-19T14:45:35;6.50;89.30
30379;DHT22;17168;49.164;9.060;2022-12-19T14:48:28;6.40;89.20
30379;DHT22;17168;49.164;9.060;2022-12-19T14:51:24;6.40;89.10
30379;DHT22;17168;49.164;9.060;2022-12-19T14:54:18;6.30;89.00
30379;DHT22;17168;49.164;9.060;2022-12-19T14:57:14;6.30;89.10
30379;DHT22;17168;49.164;9.060;2022-12-19T15:03:22;6.20;89.00
30379;DHT22;17168;49.164;9.060;2022-12-19T15:06:01;6.10;88.90
30379;DHT22;17168;49.164;9.060;2022-12-19T15:08:53;6.10;89.00
30379;DHT22;17168;49.164;9.060;2022-12-19T15:11:53;6.10;89.00
30379;DHT22;17168;49.164;9.060;2022-12-19T15:15:14;6.00;88.80
30379;DHT22;17168;49.164;9.060;2022-12-19T15:17:48;6.00;88.80
30379;DHT22;17168;49.164;9.060;2022-12-19T15:20:20;5.90;88.80
30379;DHT22;17168;49.164;9.060;2022-12-19T15:22:52;5.90;88.80
30379;DHT22;17168;49.164;9.060;2022-12-19T15:25:23;5.80;88.90
30379;DHT22;17168;49.164;9.060;2022-12-19T15:28:18;5.80;88.90
30379;DHT22;17168;49.164;9.060;2022-12-19T15:30:50;5.80;88.90
30379;DHT22;17168;49.164;9.060;2022-12-19T15:33:23;5.70;88.80
30379;DHT22;17168;49.164;9.060;2022-12-19T15:35:54;5.70;88.70
30379;DHT22;17168;49.164;9.060;2022-12-19T15:38:26;5.70;88.70
30379;DHT22;17168;49.164;9.060;2022-12-19T15:40:58;5.60;88.70
30379;DHT22;17168;49.164;9.060;2022-12-19T15:43:31;5.60;88.80
30379;DHT22;17168;49.164;9.060;2022-12-19T15:46:22;5.50;88.80
30379;DHT22;17168;49.164;9.060;2022-12-19T15:48:55;5.50;88.80
30379;DHT22;17168;49.164;9.060;2022-12-19T15:51:27;5.50;88.90
30379;DHT22;17168;49.164;9.060;2022-12-19T15:53:58;5.50;88.90
30379;DHT22;17168;49.164;9.060;2022-12-19T15:56:52;5.50;88.90
30379;DHT22;17168;49.164;9.060;2022-12-19T15:59:26;5.40;88.90
30379;DHT22;17168;49.164;9.060;2022-12-19T16:02:12;5.40;89.00
30379;DHT22;17168;49.164;9.060;2022-12-19T16:04:46;5.40;89.10
30379;DHT22;17168;49.164;9.060;2022-12-19T16:07:19;5.30;89.20
30379;DHT22;17168;49.164;9.060;2022-12-19T16:09:51;5.30;89.30
30379;DHT22;17168;49.164;9.060;2022-12-19T16:12:23;5.30;89.40
30379;DHT22;17168;49.164;9.060;2022-12-19T16:14:57;5.30;89.40
30379;DHT22;17168;49.164;9.060;2022-12-19T16:17:31;5.20;89.40
30379;DHT22;17168;49.164;9.060;2022-12-19T16:20:03;5.20;89.50
30379;DHT22;17168;49.164;9.060;2022-12-19T16:22:36;5.20;89.50
30379;DHT22;17168;49.164;9.060;2022-12-19T16:25:10;5.10;89.40
30379;DHT22;17168;49.164;9.060;2022-12-19T16:27:41;5.20;89.50
30379;DHT22;17168;49.164;9.060;2022-12-19T16:30:16;5.20;89.50
30379;DHT22;17168;49.164;9.060;2022-12-19T16:32:49;5.10;89.50
30379;DHT22;17168;49.164;9.060;2022-12-19T16:35:22;5.10;89.50
30379;DHT22;17168;49.164;9.060;2022-12-19T16:38:14;5.10;89.50
30379;DHT22;17168;49.164;9.060;2022-12-19T16:40:46;5.10;89.40
30379;DHT22;17168;49.164;9.060;2022-12-19T16:43:19;5.10;89.70
30379;DHT22;17168;49.164;9.060;2022-12-19T16:45:54;5.20;90.90
30379;DHT22;17168;49.164;9.060;2022-12-19T16:48:32;5.40;92.20
30379;DHT22;17168;49.164;9.060;2022-12-19T16:51:06;5.70;93.00
30379;DHT22;17168;49.164;9.060;2022-12-19T16:53:42;6.10;92.80
30379;DHT22;17168;49.164;9.060;2022-12-19T16:56:17;6.40;92.60
30379;DHT22;17168;49.164;9.060;2022-12-19T16:58:51;6.70;92.20
30379;DHT22;17168;49.164;9.060;2022-12-19T17:01:24;7.00;91.80
30379;DHT22;17168;49.164;9.060;2022-12-19T17:03:56;7.20;91.20
30379;DHT22;17168;49.164;9.060;2022-12-19T17:06:28;7.50;90.70
30379;DHT22;17168;49.164;9.060;2022-12-19T17:08:59;7.70;90.20